1884 NOT_NAMED (1884201N18129)


IBTrACS version v04r00. Visit IBTrACS website for data access.
Please direct all questions to the IBTrACS Q and A forum

Storm track - Intensity - Wind Radii - Intensity Data - Source Data - All data

Summary Information

Storm ID 1884201N18129
Start Jul 18 16Z
Landfall Jul 22 00Z
End Jul 23 04Z
ATCF IDs
Track status Best track data.

Storm track plot

Map of storm track

Intensity plots

No Intensity information for this storm


Radial wind information

No radial wind information for this storm


Position and Intensity Table

BASIN ISO_TIME_________ NATURE LAT LON
degrees north degrees east
WP 1884-07-18 16:00:00 NR 18.00 128.50
WP 18:00:00 NR 18.06 128.43
WP 21:00:00 NR 18.16 128.30
WP 1884-07-19 00:00:00 NR 18.30 128.16
WP 03:00:00 NR 18.51 127.97
WP 04:00:00 NR 18.60 127.90
WP 06:00:00 NR 18.81 127.73
WP 09:00:00 NR 19.20 127.45
WP 12:00:00 NR 19.65 127.13
WP 15:00:00 NR 20.13 126.81
WP 16:00:00 NR 20.30 126.70
WP 18:00:00 NR 20.63 126.49
WP 21:00:00 NR 21.15 126.19
WP 1884-07-20 00:00:00 NR 21.66 125.88
WP 03:00:00 NR 22.15 125.59
WP 04:00:00 NR 22.30 125.50
WP 06:00:00 NR 22.57 125.33
WP 09:00:00 NR 22.94 125.09
WP 12:00:00 NR 23.28 124.85
WP 15:00:00 NR 23.60 124.59
WP 16:00:00 NR 23.70 124.50
WP 18:00:00 NR 23.92 124.30
WP 21:00:00 NR 24.24 123.97
WP 1884-07-21 00:00:00 NR 24.53 123.62
WP 03:00:00 NR 24.81 123.23
WP 04:00:00 NR 24.90 123.10
WP 06:00:00 NR 25.06 122.83
WP 09:00:00 NR 25.29 122.40
WP 12:00:00 NR 25.51 121.94
WP 15:00:00 NR 25.73 121.46
WP 16:00:00 NR 25.80 121.30
WP 18:00:00 NR 25.96 120.94
WP 21:00:00 NR 26.20 120.38
WP 1884-07-22 00:00:00 NR 26.45 119.84
WP 03:00:00 NR 26.71 119.35
WP 04:00:00 NR 26.80 119.20
WP 06:00:00 NR 26.97 118.95
WP 09:00:00 NR 27.24 118.63
WP 12:00:00 NR 27.52 118.38
WP 15:00:00 NR 27.80 118.17
WP 16:00:00 NR 27.90 118.10
WP 18:00:00 NR 28.10 117.97
WP 21:00:00 NR 28.39 117.79
WP 1884-07-23 00:00:00 NR 28.69 117.62
WP 03:00:00 NR 29.00 117.46
WP 04:00:00 NR 29.10 117.40

Source Information

Agency Information
USA
TOKYO
CMA
HKO
NEWDELHI
REUNION
BOM
NADI
WELLINGTON
DS824
TD9636 cons_worldwide_trop_cyclone_18710101-19891231-003:Line=33
TD9635
NEUMANN
MLC

All available IBTrACS Data

SEASON BASIN SUBBASIN ISO_TIME_________ NATURE LAT LON DIST2LAND LANDFALL IFLAG USA SSHS TD9636 LAT TD9636 LON TD9636 STAGE STORM SPEED STORM DIR
Year degrees north degrees east km km 1 degrees north degrees east kts degrees
1884 WP MM 1884-07-18 16:00:00 NR 18.00 128.50 634 626 __________O___ -1 18.00 128.50 7 3 309
1884 WP MM 18:00:00 NR 18.06 128.43 634 627 __________P___ -1 18.06 128.43 7 3 310
1884 WP MM 21:00:00 NR 18.16 128.30 629 618 __________P___ -1 18.16 128.30 7 4 314
1884 WP MM 1884-07-19 00:00:00 NR 18.30 128.16 621 601 __________P___ -1 18.30 128.16 7 5 318
1884 WP MM 03:00:00 NR 18.51 127.97 601 590 __________P___ -1 18.51 127.97 7 6 321
1884 WP MM 04:00:00 NR 18.60 127.90 590 570 __________O___ -1 18.60 127.90 7 8 323
1884 WP MM 06:00:00 NR 18.81 127.73 570 544 __________P___ -1 18.81 127.73 7 9 325
1884 WP MM 09:00:00 NR 19.20 127.45 544 525 __________P___ -1 19.20 127.45 7 10 326
1884 WP MM 12:00:00 NR 19.65 127.13 525 509 __________P___ -1 19.65 127.13 7 11 327
1884 WP MM 15:00:00 NR 20.13 126.81 509 503 __________P___ -1 20.13 126.81 7 12 328
1884 WP MM 16:00:00 NR 20.30 126.70 508 499 __________O___ -1 20.30 126.70 7 12 329
1884 WP MM 18:00:00 NR 20.63 126.49 504 500 __________P___ -1 20.63 126.49 7 12 330
1884 WP MM 21:00:00 NR 21.15 126.19 507 488 __________P___ -1 21.15 126.19 7 12 331
1884 WP MM 1884-07-20 00:00:00 NR 21.66 125.88 488 445 __________P___ -1 21.66 125.88 7 11 331
1884 WP MM 03:00:00 NR 22.15 125.59 445 429 __________P___ -1 22.15 125.59 7 11 331
1884 WP MM 04:00:00 NR 22.30 125.50 429 403 __________O___ -1 22.30 125.50 3 10 330
1884 WP MM 06:00:00 NR 22.57 125.33 403 371 __________P___ -1 22.57 125.33 3 9 330
1884 WP MM 09:00:00 NR 22.94 125.09 371 333 __________P___ -1 22.94 125.09 3 8 328
1884 WP MM 12:00:00 NR 23.28 124.85 333 291 __________P___ -1 23.28 124.85 3 8 325
1884 WP MM 15:00:00 NR 23.60 124.59 291 278 __________P___ -1 23.60 124.59 3 8 322
1884 WP MM 16:00:00 NR 23.70 124.50 278 252 __________O___ -1 23.70 124.50 4 8 320
1884 WP MM 18:00:00 NR 23.92 124.30 252 215 __________P___ -1 23.92 124.30 4 9 318
1884 WP MM 21:00:00 NR 24.24 123.97 215 170 __________P___ -1 24.24 123.97 4 9 315
1884 WP MM 1884-07-21 00:00:00 NR 24.53 123.62 170 122 __________P___ -1 24.53 123.62 4 9 311
1884 WP MM 03:00:00 NR 24.81 123.23 122 111 __________P___ -1 24.81 123.23 4 9 308
1884 WP MM 04:00:00 NR 24.90 123.10 111 81 __________O___ -1 24.90 123.10 4 9 304
1884 WP MM 06:00:00 NR 25.06 122.83 81 52 __________P___ -1 25.06 122.83 4 9 302
1884 WP MM 09:00:00 NR 25.29 122.40 52 45 __________P___ -1 25.29 122.40 4 9 299
1884 WP MM 12:00:00 NR 25.51 121.94 45 45 __________P___ -1 25.51 121.94 4 10 297
1884 WP MM 15:00:00 NR 25.73 121.46 55 55 __________P___ -1 25.73 121.46 4 10 297
1884 WP MM 16:00:00 NR 25.80 121.30 67 67 __________O___ -1 25.80 121.30 4 11 296
1884 WP MM 18:00:00 NR 25.96 120.94 102 53 __________P___ -1 25.96 120.94 4 11 296
1884 WP MM 21:00:00 NR 26.20 120.38 53 0 __________P___ -1 26.20 120.38 4 11 297
1884 WP MM 1884-07-22 00:00:00 NR 26.45 119.84 0 0 __________P___ -1 26.45 119.84 4 11 299
1884 WP MM 03:00:00 NR 26.71 119.35 0 0 __________P___ -1 26.71 119.35 4 10 301
1884 WP MM 04:00:00 NR 26.80 119.20 0 0 __________O___ -1 26.80 119.20 4 9 306
1884 WP MM 06:00:00 NR 26.97 118.95 0 0 __________P___ -1 26.97 118.95 4 8 311
1884 WP MM 09:00:00 NR 27.24 118.63 0 0 __________P___ -1 27.24 118.63 4 7 317
1884 WP MM 12:00:00 NR 27.52 118.38 0 0 __________P___ -1 27.52 118.38 4 7 324
1884 WP MM 15:00:00 NR 27.80 118.17 0 0 __________P___ -1 27.80 118.17 4 7 327
1884 WP MM 16:00:00 NR 27.90 118.10 0 0 __________O___ -1 27.90 118.10 4 7 330
1884 WP MM 18:00:00 NR 28.10 117.97 0 0 __________P___ -1 28.10 117.97 4 7 331
1884 WP MM 21:00:00 NR 28.39 117.79 0 0 __________P___ -1 28.39 117.79 4 7 333
1884 WP MM 1884-07-23 00:00:00 NR 28.69 117.62 0 0 __________P___ -1 28.69 117.62 4 7 334
1884 WP MM 03:00:00 NR 29.00 117.46 0 0 __________P___ -1 29.00 117.46 4 7 334
1884 WP MM 04:00:00 NR 29.10 117.40 0 __________O___ -1 29.10 117.40 4 7 335